createdAt,value
2019-04-16T00:00:52.986Z,43.80
2019-04-16T00:03:47.248Z,43.80
2019-04-16T00:07:01.080Z,43.60
2019-04-16T00:10:17.941Z,43.70
2019-04-16T00:13:34.850Z,43.90
2019-04-16T00:16:27.460Z,44.00
2019-04-16T00:19:20.051Z,43.90
2019-04-16T00:22:29.885Z,44.00
2019-04-16T00:25:22.276Z,43.80
2019-04-16T00:28:14.936Z,44.00
2019-04-16T00:31:07.536Z,44.10
2019-04-16T00:34:00.331Z,44.10
2019-04-16T00:36:52.843Z,44.10
2019-04-16T00:39:45.875Z,44.00
2019-04-16T00:45:35.018Z,43.80
2019-04-16T00:48:27.573Z,43.80
2019-04-16T00:51:20.154Z,44.00
2019-04-16T00:54:13.246Z,43.80
2019-04-16T00:57:05.987Z,43.80
2019-04-16T00:59:59.138Z,43.70
2019-04-16T01:02:51.938Z,43.70
2019-04-16T01:05:44.303Z,43.70
2019-04-16T01:08:38.100Z,43.70
2019-04-16T01:11:30.682Z,43.60
2019-04-16T01:14:24.252Z,43.70
2019-04-16T01:17:17.627Z,43.50
2019-04-16T01:20:12.625Z,43.50
2019-04-16T01:23:05.531Z,43.50
2019-04-16T01:25:58.411Z,43.50
2019-04-16T01:28:55.824Z,43.40
2019-04-16T01:32:11.955Z,43.50
2019-04-16T01:35:19.107Z,43.50
2019-04-16T01:38:28.689Z,43.40
2019-04-16T01:41:22.554Z,43.60
2019-04-16T01:44:15.481Z,43.40
2019-04-16T01:47:08.628Z,43.50
2019-04-16T01:50:01.353Z,43.50
2019-04-16T01:52:54.368Z,43.40
2019-04-16T01:55:47.027Z,43.40
2019-04-16T01:58:39.675Z,43.40
2019-04-16T02:01:32.607Z,43.40
2019-04-16T02:04:25.630Z,43.50
2019-04-16T02:07:18.110Z,43.50
2019-04-16T02:10:11.183Z,43.50
2019-04-16T02:13:04.632Z,43.50
2019-04-16T02:15:57.233Z,43.50
2019-04-16T02:18:49.830Z,43.50
2019-04-16T02:21:42.644Z,43.50
2019-04-16T02:24:35.189Z,43.50
2019-04-16T02:27:28.846Z,43.50
2019-04-16T02:30:22.257Z,43.50
2019-04-16T02:33:15.650Z,43.50
2019-04-16T02:36:08.972Z,43.50
2019-04-16T02:39:02.072Z,43.50
2019-04-16T02:41:58.162Z,43.60
2019-04-16T02:44:50.574Z,43.50
2019-04-16T02:47:43.220Z,43.50
2019-04-16T02:50:54.969Z,43.50
2019-04-16T02:54:04.896Z,43.60
2019-04-16T02:57:28.288Z,43.50
2019-04-16T03:00:49.104Z,43.40
2019-04-16T03:03:47.512Z,43.40
2019-04-16T03:06:40.369Z,43.40
2019-04-16T03:09:33.156Z,43.50
2019-04-16T03:12:25.780Z,43.40
2019-04-16T03:15:21.470Z,43.40
2019-04-16T03:18:15.014Z,43.40
2019-04-16T03:21:08.001Z,43.40
2019-04-16T03:24:02.172Z,43.50
2019-04-16T03:26:54.757Z,43.50
2019-04-16T03:29:48.668Z,43.40
2019-04-16T03:32:53.048Z,43.30
2019-04-16T03:35:48.817Z,43.40
2019-04-16T03:38:42.329Z,43.40
2019-04-16T03:41:36.412Z,43.50
2019-04-16T03:44:29.637Z,43.40
2019-04-16T03:47:22.603Z,43.50
2019-04-16T03:50:15.534Z,43.50
2019-04-16T03:53:09.876Z,43.40
2019-04-16T03:56:04.116Z,43.40
2019-04-16T03:58:57.059Z,43.50
2019-04-16T04:05:22.291Z,43.50
2019-04-16T04:08:17.373Z,43.50
2019-04-16T04:11:11.789Z,43.50
2019-04-16T04:14:06.851Z,43.50
2019-04-16T04:17:05.463Z,43.60
2019-04-16T04:19:57.477Z,43.40
2019-04-16T04:22:56.791Z,43.40
2019-04-16T04:25:49.496Z,43.50
2019-04-16T04:28:43.113Z,43.50
2019-04-16T04:31:36.633Z,41.80
2019-04-16T04:34:29.921Z,41.30
2019-04-16T04:37:23.347Z,41.80
2019-04-16T04:40:17.517Z,41.10
2019-04-16T04:43:10.840Z,40.80
2019-04-16T04:46:06.295Z,40.40
2019-04-16T04:49:02.006Z,40.00
2019-04-16T04:51:54.881Z,39.90
2019-04-16T04:54:48.057Z,39.60
2019-04-16T04:57:48.351Z,39.30
2019-04-16T05:04:32.561Z,39.10
2019-04-16T05:11:02.632Z,38.80
2019-04-16T05:14:05.916Z,38.90
2019-04-16T05:17:07.591Z,38.90
2019-04-16T05:20:07.237Z,38.90
2019-04-16T05:23:03.684Z,39.00
2019-04-16T05:25:58.531Z,38.70
2019-04-16T05:28:53.652Z,38.80
2019-04-16T05:31:50.681Z,38.90
2019-04-16T05:34:44.050Z,39.10
2019-04-16T05:37:42.938Z,39.20
2019-04-16T05:40:47.427Z,39.20
2019-04-16T05:43:47.594Z,38.80
2019-04-16T05:46:46.636Z,38.80
2019-04-16T05:49:45.797Z,38.60
2019-04-16T05:52:43.194Z,38.80
2019-04-16T05:55:57.427Z,38.90
2019-04-16T05:58:51.033Z,38.90
2019-04-16T06:01:52.590Z,38.90
2019-04-16T06:04:46.806Z,39.10
2019-04-16T06:07:47.310Z,38.90
2019-04-16T06:10:40.602Z,39.00
2019-04-16T06:13:45.212Z,38.90
2019-04-16T06:16:56.816Z,38.90
2019-04-16T06:20:00.381Z,38.80
2019-04-16T06:23:09.154Z,38.80
2019-04-16T06:26:14.767Z,38.60
2019-04-16T06:29:16.897Z,38.70
2019-04-16T06:32:29.025Z,38.80
2019-04-16T06:35:47.033Z,38.60
2019-04-16T06:39:01.341Z,38.30
2019-04-16T06:42:14.806Z,38.20
2019-04-16T06:45:41.115Z,38.20
2019-04-16T06:48:42.303Z,38.60
2019-04-16T06:51:50.467Z,38.40
2019-04-16T06:55:07.975Z,38.50
2019-04-16T06:58:28.046Z,38.40
2019-04-16T07:01:41.918Z,38.40
2019-04-16T07:05:10.977Z,38.50
2019-04-16T07:08:11.455Z,38.50
2019-04-16T07:11:09.183Z,38.40
2019-04-16T07:14:03.143Z,38.50
2019-04-16T07:16:59.879Z,38.30
2019-04-16T07:19:52.961Z,38.60
2019-04-16T07:22:46.423Z,38.60
2019-04-16T07:25:42.742Z,38.50
2019-04-16T07:28:46.066Z,38.50
2019-04-16T07:31:59.517Z,38.60
2019-04-16T07:35:12.397Z,38.40
2019-04-16T07:38:17.978Z,38.40
2019-04-16T07:41:22.133Z,38.40
2019-04-16T07:44:43.183Z,38.50
2019-04-16T07:47:48.293Z,38.30
2019-04-16T07:51:13.570Z,38.50
2019-04-16T07:54:24.853Z,38.50
2019-04-16T07:57:19.568Z,38.70
2019-04-16T08:00:13.527Z,38.60
2019-04-16T08:03:06.833Z,38.80
2019-04-16T08:05:59.894Z,38.70
2019-04-16T08:08:53.900Z,38.90
2019-04-16T08:11:50.111Z,38.50
2019-04-16T08:14:43.720Z,38.00
2019-04-16T08:17:37.799Z,37.80
2019-04-16T08:20:31.316Z,37.80
2019-04-16T08:23:39.247Z,38.30
2019-04-16T08:26:35.311Z,38.00
2019-04-16T08:29:30.596Z,38.50
2019-04-16T08:32:25.696Z,39.00
2019-04-16T08:35:23.937Z,38.70
2019-04-16T08:38:16.932Z,38.80
2019-04-16T08:41:12.707Z,39.20
2019-04-16T08:44:11.730Z,38.90
2019-04-16T08:47:11.513Z,39.40
2019-04-16T08:50:05.624Z,39.30
2019-04-16T08:52:59.318Z,39.60
2019-04-16T08:55:53.490Z,39.60
2019-04-16T08:58:46.789Z,39.70
2019-04-16T09:01:44.426Z,39.90
2019-04-16T09:04:37.677Z,39.90
2019-04-16T09:07:44.480Z,40.10
2019-04-16T09:10:40.128Z,40.10
2019-04-16T09:13:36.916Z,40.20
2019-04-16T09:16:34.117Z,40.10
2019-04-16T09:19:27.128Z,40.10
2019-04-16T09:22:20.278Z,40.30
2019-04-16T09:25:26.862Z,40.40
2019-04-16T09:28:32.066Z,40.30
2019-04-16T09:31:55.533Z,40.40
2019-04-16T09:35:25.596Z,40.40
2019-04-16T09:38:45.219Z,40.40
2019-04-16T09:41:40.951Z,40.30
2019-04-16T09:44:37.051Z,40.30
2019-04-16T09:47:34.450Z,40.40
2019-04-16T09:50:31.650Z,40.40
2019-04-16T09:53:34.139Z,40.40
2019-04-16T09:56:33.935Z,40.40
2019-04-16T09:59:39.135Z,40.50
2019-04-16T10:02:38.876Z,40.50
2019-04-16T10:05:34.300Z,40.40
2019-04-16T10:08:33.374Z,40.50
2019-04-16T10:11:27.214Z,40.50
2019-04-16T10:14:32.818Z,40.50
2019-04-16T10:24:52.950Z,41.20
2019-04-16T10:28:17.996Z,40.50
2019-04-16T10:31:17.602Z,40.50
2019-04-16T10:34:11.237Z,40.40
2019-04-16T10:37:04.082Z,40.40
2019-04-16T10:40:05.612Z,40.50
2019-04-16T10:43:19.965Z,40.40
2019-04-16T10:46:30.762Z,40.30
2019-04-16T10:49:42.013Z,40.30
2019-04-16T10:53:09.896Z,40.40
2019-04-16T10:56:39.697Z,40.40
2019-04-16T11:00:01.980Z,40.50
2019-04-16T11:03:01.704Z,40.50
2019-04-16T11:06:09.720Z,40.50
2019-04-16T11:09:20.543Z,40.40
2019-04-16T11:12:24.692Z,40.50
2019-04-16T11:15:23.294Z,40.50
2019-04-16T11:18:16.623Z,40.40
2019-04-16T11:21:11.514Z,40.50
2019-04-16T11:24:04.402Z,40.50
2019-04-16T11:26:58.753Z,40.60
2019-04-16T11:32:53.423Z,40.60
2019-04-16T11:35:46.482Z,40.70
2019-04-16T11:38:43.737Z,40.60
2019-04-16T11:41:38.756Z,40.70
2019-04-16T11:44:31.864Z,40.70
2019-04-16T11:47:27.699Z,40.70
2019-04-16T11:50:18.357Z,40.80
2019-04-16T11:53:12.695Z,40.70
2019-04-16T11:56:05.202Z,40.70
2019-04-16T11:59:01.428Z,40.90
2019-04-16T12:02:10.273Z,40.80
2019-04-16T12:05:27.772Z,41.50
2019-04-16T12:08:39.014Z,40.90
2019-04-16T12:11:48.880Z,40.90
2019-04-16T12:14:54.094Z,40.80
2019-04-16T12:17:58.949Z,40.90
2019-04-16T12:21:15.536Z,40.90
2019-04-16T12:24:35.549Z,41.00
2019-04-16T12:27:58.343Z,41.00
2019-04-16T12:31:07.759Z,41.00
2019-04-16T12:34:24.060Z,41.00
2019-04-16T12:37:37.658Z,41.00
2019-04-16T12:40:47.822Z,41.10
2019-04-16T12:43:50.829Z,41.00
2019-04-16T12:47:12.154Z,41.00
2019-04-16T12:50:17.195Z,41.00
2019-04-16T12:53:36.049Z,41.00
2019-04-16T12:56:49.828Z,41.00
2019-04-16T13:00:03.994Z,41.00
2019-04-16T13:03:19.589Z,41.00
2019-04-16T13:06:39.702Z,41.00
2019-04-16T13:09:49.029Z,41.00
2019-04-16T13:13:14.962Z,41.10
2019-04-16T13:16:23.079Z,41.10
2019-04-16T13:19:33.105Z,41.10
2019-04-16T13:22:31.997Z,41.10
2019-04-16T13:25:29.323Z,41.20
2019-04-16T13:28:23.177Z,41.10
2019-04-16T13:31:15.823Z,41.10
2019-04-16T13:34:10.472Z,41.10
2019-04-16T13:37:04.150Z,41.20
2019-04-16T13:40:00.974Z,41.20
2019-04-16T13:42:55.086Z,41.20
2019-04-16T13:45:48.065Z,41.20
2019-04-16T13:48:49.214Z,41.20
2019-04-16T13:51:44.923Z,41.30
2019-04-16T13:54:50.124Z,41.30
2019-04-16T13:57:43.030Z,41.30
2019-04-16T14:00:44.346Z,41.30
2019-04-16T14:03:37.149Z,41.30
2019-04-16T14:06:30.210Z,41.30
2019-04-16T14:09:22.795Z,41.30
2019-04-16T14:12:15.351Z,41.40
2019-04-16T14:15:08.545Z,41.40
2019-04-16T14:18:01.455Z,41.40
2019-04-16T14:20:56.221Z,41.40
2019-04-16T14:23:48.471Z,41.40
2019-04-16T14:26:41.310Z,41.40
2019-04-16T14:29:35.778Z,41.40
2019-04-16T14:32:28.867Z,41.50
2019-04-16T14:35:32.826Z,41.50
2019-04-16T14:38:21.970Z,41.50
2019-04-16T14:41:15.934Z,41.50
2019-04-16T14:44:12.604Z,41.50
2019-04-16T14:47:08.020Z,41.50
2019-04-16T14:50:00.736Z,41.60
2019-04-16T14:52:53.763Z,41.60
2019-04-16T14:56:01.606Z,41.60
2019-04-16T14:59:07.914Z,41.60
2019-04-16T15:02:14.886Z,41.70
2019-04-16T15:05:27.184Z,41.60
2019-04-16T15:08:37.087Z,41.60
2019-04-16T15:11:57.829Z,41.60
2019-04-16T15:14:57.752Z,41.60
2019-04-16T15:18:08.035Z,41.60
2019-04-16T15:21:21.708Z,41.60
2019-04-16T15:24:24.543Z,41.50
2019-04-16T15:27:32.577Z,41.60
2019-04-16T15:30:42.803Z,41.50
2019-04-16T15:33:42.700Z,41.60
2019-04-16T15:36:41.206Z,41.60
2019-04-16T15:39:41.828Z,41.60
2019-04-16T15:43:12.827Z,41.50
2019-04-16T15:46:26.335Z,41.50
2019-04-16T15:49:27.659Z,41.60
2019-04-16T15:52:41.797Z,41.50
2019-04-16T15:55:57.640Z,41.50
2019-04-16T15:58:54.476Z,41.60
2019-04-16T16:01:48.102Z,41.60
2019-04-16T16:04:50.874Z,41.60
2019-04-16T16:07:56.042Z,41.60
2019-04-16T16:10:50.838Z,41.60
2019-04-16T16:13:43.326Z,41.60
2019-04-16T16:16:41.954Z,41.60
2019-04-16T16:19:29.878Z,41.60
2019-04-16T16:22:22.430Z,41.60
2019-04-16T16:25:15.591Z,41.60
2019-04-16T16:28:08.535Z,41.60
2019-04-16T16:31:01.553Z,41.60
2019-04-16T16:33:54.407Z,41.60
2019-04-16T16:36:47.205Z,41.70
2019-04-16T16:39:39.937Z,41.60
2019-04-16T16:42:32.782Z,41.70
2019-04-16T16:45:30.332Z,41.70
2019-04-16T16:48:23.380Z,41.90
2019-04-16T16:51:16.694Z,41.60
2019-04-16T16:54:18.596Z,41.70
2019-04-16T16:57:24.194Z,41.70
2019-04-16T17:00:24.938Z,41.70
2019-04-16T17:03:41.529Z,41.80
2019-04-16T17:06:34.170Z,41.70
2019-04-16T17:09:37.624Z,41.70
2019-04-16T17:12:30.959Z,41.70
2019-04-16T17:15:23.900Z,41.70
2019-04-16T17:18:17.102Z,41.70
2019-04-16T17:21:10.743Z,41.70
2019-04-16T17:24:03.676Z,41.70
2019-04-16T17:26:56.434Z,41.80
2019-04-16T17:29:50.919Z,41.70
2019-04-16T17:32:46.668Z,41.70
2019-04-16T17:35:46.016Z,41.80
2019-04-16T17:38:37.747Z,41.70
2019-04-16T17:41:40.739Z,42.50
2019-04-16T17:44:40.987Z,41.80
2019-04-16T17:47:40.299Z,41.70
2019-04-16T17:50:57.231Z,41.80
2019-04-16T17:53:57.432Z,41.80
2019-04-16T17:57:08.088Z,41.80
2019-04-16T18:00:07.660Z,41.80
2019-04-16T18:03:18.858Z,41.70
2019-04-16T18:06:33.030Z,41.70
2019-04-16T18:09:40.747Z,41.70
2019-04-16T18:12:41.283Z,41.70
2019-04-16T18:15:42.503Z,41.80
2019-04-16T18:18:43.268Z,41.80
2019-04-16T18:21:57.012Z,41.70
2019-04-16T18:25:09.156Z,41.70
2019-04-16T18:28:06.804Z,41.70
2019-04-16T18:31:04.203Z,41.70
2019-04-16T18:34:10.148Z,41.70
2019-04-16T18:37:20.941Z,41.70
2019-04-16T18:40:32.485Z,41.70
2019-04-16T18:43:41.280Z,41.70
2019-04-16T18:46:43.955Z,41.70
2019-04-16T18:49:36.934Z,41.80
2019-04-16T18:52:29.383Z,41.80
2019-04-16T18:55:21.743Z,41.90
2019-04-16T18:58:14.500Z,41.80
2019-04-16T19:01:16.494Z,41.80
2019-04-16T19:04:09.314Z,41.80
2019-04-16T19:07:01.984Z,41.80
2019-04-16T19:09:55.634Z,41.80
2019-04-16T19:12:48.026Z,41.90
2019-04-16T19:15:40.843Z,41.80
2019-04-16T19:18:35.935Z,41.90
2019-04-16T19:21:28.495Z,41.90
2019-04-16T19:24:20.993Z,41.90
2019-04-16T19:27:13.446Z,41.90
2019-04-16T19:30:06.460Z,42.00
2019-04-16T19:33:01.630Z,42.00
2019-04-16T19:35:55.047Z,42.00
2019-04-16T19:38:48.076Z,42.00
2019-04-16T19:41:41.360Z,42.00
2019-04-16T19:44:39.482Z,41.90
2019-04-16T19:47:27.750Z,42.10
2019-04-16T19:50:20.071Z,41.40
2019-04-16T19:53:14.935Z,42.00
2019-04-16T19:56:07.507Z,42.00
2019-04-16T19:59:00.194Z,42.00
2019-04-16T20:01:55.809Z,42.00
2019-04-16T20:04:50.435Z,42.10
2019-04-16T20:07:40.428Z,42.10
2019-04-16T20:10:33.293Z,42.10
2019-04-16T20:13:29.020Z,42.10
2019-04-16T20:16:19.534Z,42.10
2019-04-16T20:19:12.383Z,42.10
2019-04-16T20:22:05.078Z,42.10
2019-04-16T20:24:57.354Z,42.20
2019-04-16T20:27:49.839Z,42.20
2019-04-16T20:30:42.496Z,42.20
2019-04-16T20:33:35.283Z,42.20
2019-04-16T20:36:27.701Z,42.20
2019-04-16T20:39:20.421Z,42.20
2019-04-16T20:42:13.068Z,42.20
2019-04-16T20:45:05.755Z,42.20
2019-04-16T20:47:58.352Z,42.20
2019-04-16T20:50:53.061Z,42.20
2019-04-16T20:53:44.456Z,42.20
2019-04-16T20:56:40.689Z,42.20
2019-04-16T20:59:36.090Z,42.30
2019-04-16T21:02:27.563Z,42.20
2019-04-16T21:05:22.218Z,42.10
2019-04-16T21:08:16.654Z,42.10
2019-04-16T21:11:09.596Z,42.10
2019-04-16T21:14:02.183Z,42.10
2019-04-16T21:16:54.575Z,42.10
2019-04-16T21:19:50.162Z,42.10
2019-04-16T21:22:43.014Z,42.10
2019-04-16T21:25:35.243Z,42.20
2019-04-16T21:28:34.616Z,42.20
2019-04-16T21:31:33.360Z,42.20
2019-04-16T21:34:46.881Z,42.20
2019-04-16T21:37:59.773Z,42.20
2019-04-16T21:40:52.852Z,42.30
2019-04-16T21:43:46.537Z,42.20
2019-04-16T21:46:38.736Z,42.20
2019-04-16T21:49:38.858Z,42.20
2019-04-16T21:52:25.553Z,42.20
2019-04-16T21:55:18.031Z,42.10
2019-04-16T21:58:10.494Z,42.10
2019-04-16T22:01:26.169Z,42.20
2019-04-16T22:04:20.610Z,42.10
2019-04-16T22:07:13.378Z,42.10
2019-04-16T22:10:06.233Z,42.10
2019-04-16T22:12:59.085Z,42.10
2019-04-16T22:15:53.780Z,42.10
2019-04-16T22:18:46.628Z,42.10
2019-04-16T22:21:42.260Z,42.20
2019-04-16T22:24:33.171Z,42.10
2019-04-16T22:27:25.867Z,42.10
2019-04-16T22:30:19.411Z,42.10
2019-04-16T22:33:12.223Z,42.10
2019-04-16T22:36:04.440Z,42.20
2019-04-16T22:39:05.740Z,42.20
2019-04-16T22:42:18.700Z,42.30
2019-04-16T22:45:21.939Z,42.20
2019-04-16T22:48:14.466Z,42.10
2019-04-16T22:51:09.343Z,42.00
2019-04-16T22:54:01.448Z,41.80
2019-04-16T22:57:03.531Z,42.00
2019-04-16T22:59:56.489Z,41.90
2019-04-16T23:02:49.014Z,41.90
2019-04-16T23:05:42.130Z,41.80
2019-04-16T23:08:34.792Z,41.80
2019-04-16T23:11:27.479Z,41.90
2019-04-16T23:14:19.861Z,41.90
2019-04-16T23:17:14.168Z,42.00
2019-04-16T23:20:07.002Z,42.00
2019-04-16T23:22:59.984Z,42.10
2019-04-16T23:25:52.896Z,42.10
2019-04-16T23:28:45.395Z,42.20
2019-04-16T23:31:40.936Z,42.10
2019-04-16T23:34:34.936Z,42.20
2019-04-16T23:37:26.851Z,42.30
2019-04-16T23:40:19.941Z,42.30
2019-04-16T23:43:33.576Z,42.30
2019-04-16T23:46:42.809Z,42.30
2019-04-16T23:49:56.599Z,42.50
2019-04-16T23:52:57.319Z,42.40
2019-04-16T23:56:13.925Z,42.50
2019-04-16T23:59:24.677Z,42.50
